sensor_id;sensor_type;location;lat;lon;timestamp;P1;durP1;ratioP1;P2;durP2;ratioP2
16516;SDS011;8371;52.272;9.746;2023-10-08T00:01:47;0.00;;;0.00;;
16516;SDS011;8371;52.272;9.746;2023-10-08T00:04:13;0.00;;;0.00;;
16516;SDS011;8371;52.272;9.746;2023-10-08T00:06:40;0.00;;;0.00;;
16516;SDS011;8371;52.272;9.746;2023-10-08T00:09:06;0.00;;;0.00;;
16516;SDS011;8371;52.272;9.746;2023-10-08T00:11:36;0.00;;;0.00;;
16516;SDS011;8371;52.272;9.746;2023-10-08T00:14:03;1.30;;;0.03;;
16516;SDS011;8371;52.272;9.746;2023-10-08T00:16:38;0.00;;;0.00;;
16516;SDS011;8371;52.272;9.746;2023-10-08T00:19:09;0.00;;;0.00;;
16516;SDS011;8371;52.272;9.746;2023-10-08T00:21:34;0.00;;;0.00;;
16516;SDS011;8371;52.272;9.746;2023-10-08T00:24:03;0.07;;;0.07;;
16516;SDS011;8371;52.272;9.746;2023-10-08T00:26:31;0.03;;;0.03;;
16516;SDS011;8371;52.272;9.746;2023-10-08T00:31:47;0.00;;;0.00;;
16516;SDS011;8371;52.272;9.746;2023-10-08T00:34:18;0.00;;;0.00;;
16516;SDS011;8371;52.272;9.746;2023-10-08T00:36:48;0.07;;;0.07;;
16516;SDS011;8371;52.272;9.746;2023-10-08T00:39:14;0.00;;;0.00;;
16516;SDS011;8371;52.272;9.746;2023-10-08T00:41:42;0.00;;;0.00;;
16516;SDS011;8371;52.272;9.746;2023-10-08T00:44:12;0.00;;;0.00;;
16516;SDS011;8371;52.272;9.746;2023-10-08T00:46:40;0.00;;;0.00;;
16516;SDS011;8371;52.272;9.746;2023-10-08T00:49:15;0.00;;;0.00;;
16516;SDS011;8371;52.272;9.746;2023-10-08T00:52:01;0.10;;;0.00;;
16516;SDS011;8371;52.272;9.746;2023-10-08T00:54:36;0.63;;;0.00;;
16516;SDS011;8371;52.272;9.746;2023-10-08T00:57:07;0.03;;;0.03;;
16516;SDS011;8371;52.272;9.746;2023-10-08T00:59:33;0.00;;;0.00;;
16516;SDS011;8371;52.272;9.746;2023-10-08T01:02:00;0.00;;;0.00;;
16516;SDS011;8371;52.272;9.746;2023-10-08T01:04:28;0.43;;;0.10;;
16516;SDS011;8371;52.272;9.746;2023-10-08T01:06:59;0.00;;;0.00;;
16516;SDS011;8371;52.272;9.746;2023-10-08T01:09:31;0.10;;;0.00;;
16516;SDS011;8371;52.272;9.746;2023-10-08T01:12:11;0.10;;;0.10;;
16516;SDS011;8371;52.272;9.746;2023-10-08T01:14:43;0.00;;;0.00;;
16516;SDS011;8371;52.272;9.746;2023-10-08T01:17:11;0.10;;;0.10;;
16516;SDS011;8371;52.272;9.746;2023-10-08T01:19:40;0.23;;;0.10;;
16516;SDS011;8371;52.272;9.746;2023-10-08T01:22:08;0.00;;;0.00;;
16516;SDS011;8371;52.272;9.746;2023-10-08T01:24:36;0.10;;;0.10;;
16516;SDS011;8371;52.272;9.746;2023-10-08T01:27:02;0.97;;;0.07;;
16516;SDS011;8371;52.272;9.746;2023-10-08T01:29:29;0.00;;;0.00;;
16516;SDS011;8371;52.272;9.746;2023-10-08T01:31:57;0.00;;;0.00;;
16516;SDS011;8371;52.272;9.746;2023-10-08T01:34:23;0.00;;;0.00;;
16516;SDS011;8371;52.272;9.746;2023-10-08T01:36:56;0.00;;;0.00;;
16516;SDS011;8371;52.272;9.746;2023-10-08T01:39:24;0.00;;;0.00;;
16516;SDS011;8371;52.272;9.746;2023-10-08T01:41:51;0.00;;;0.00;;
16516;SDS011;8371;52.272;9.746;2023-10-08T01:44:17;1.50;;;0.73;;
16516;SDS011;8371;52.272;9.746;2023-10-08T01:46:43;0.53;;;0.33;;
16516;SDS011;8371;52.272;9.746;2023-10-08T01:49:08;1.53;;;0.40;;
16516;SDS011;8371;52.272;9.746;2023-10-08T01:51:36;2.00;;;0.50;;
16516;SDS011;8371;52.272;9.746;2023-10-08T01:54:06;0.70;;;0.30;;
16516;SDS011;8371;52.272;9.746;2023-10-08T01:56:34;0.43;;;0.40;;
16516;SDS011;8371;52.272;9.746;2023-10-08T01:59:00;0.30;;;0.30;;
16516;SDS011;8371;52.272;9.746;2023-10-08T02:01:26;0.63;;;0.40;;
16516;SDS011;8371;52.272;9.746;2023-10-08T02:03:51;0.60;;;0.33;;
16516;SDS011;8371;52.272;9.746;2023-10-08T02:06:17;1.57;;;0.70;;
16516;SDS011;8371;52.272;9.746;2023-10-08T02:08:47;1.20;;;1.07;;
16516;SDS011;8371;52.272;9.746;2023-10-08T02:11:18;0.87;;;0.33;;
16516;SDS011;8371;52.272;9.746;2023-10-08T02:13:45;0.20;;;0.20;;
16516;SDS011;8371;52.272;9.746;2023-10-08T02:16:17;0.30;;;0.30;;
16516;SDS011;8371;52.272;9.746;2023-10-08T02:18:43;0.50;;;0.50;;
16516;SDS011;8371;52.272;9.746;2023-10-08T02:21:09;0.30;;;0.30;;
16516;SDS011;8371;52.272;9.746;2023-10-08T02:23:36;0.20;;;0.20;;
16516;SDS011;8371;52.272;9.746;2023-10-08T02:26:02;0.30;;;0.30;;
16516;SDS011;8371;52.272;9.746;2023-10-08T02:28:28;0.40;;;0.40;;
16516;SDS011;8371;52.272;9.746;2023-10-08T02:30:54;0.40;;;0.30;;
16516;SDS011;8371;52.272;9.746;2023-10-08T02:33:20;0.43;;;0.43;;
16516;SDS011;8371;52.272;9.746;2023-10-08T02:35:46;1.13;;;1.03;;
16516;SDS011;8371;52.272;9.746;2023-10-08T02:38:14;0.40;;;0.40;;
16516;SDS011;8371;52.272;9.746;2023-10-08T02:40:46;0.40;;;0.40;;
16516;SDS011;8371;52.272;9.746;2023-10-08T02:43:13;0.30;;;0.30;;
16516;SDS011;8371;52.272;9.746;2023-10-08T02:45:41;0.40;;;0.40;;
16516;SDS011;8371;52.272;9.746;2023-10-08T02:48:07;0.40;;;0.40;;
16516;SDS011;8371;52.272;9.746;2023-10-08T02:50:35;0.50;;;0.50;;
16516;SDS011;8371;52.272;9.746;2023-10-08T02:53:02;1.00;;;0.90;;
16516;SDS011;8371;52.272;9.746;2023-10-08T02:55:30;0.37;;;0.37;;
16516;SDS011;8371;52.272;9.746;2023-10-08T02:58:01;0.40;;;0.40;;
16516;SDS011;8371;52.272;9.746;2023-10-08T03:00:29;0.30;;;0.30;;
16516;SDS011;8371;52.272;9.746;2023-10-08T03:02:56;2.70;;;0.40;;
16516;SDS011;8371;52.272;9.746;2023-10-08T03:05:23;0.47;;;0.47;;
16516;SDS011;8371;52.272;9.746;2023-10-08T03:07:50;0.80;;;0.80;;
16516;SDS011;8371;52.272;9.746;2023-10-08T03:10:17;0.20;;;0.20;;
16516;SDS011;8371;52.272;9.746;2023-10-08T03:12:43;0.53;;;0.53;;
16516;SDS011;8371;52.272;9.746;2023-10-08T03:15:12;0.37;;;0.33;;
16516;SDS011;8371;52.272;9.746;2023-10-08T03:17:40;0.53;;;0.50;;
16516;SDS011;8371;52.272;9.746;2023-10-08T03:20:08;0.67;;;0.13;;
16516;SDS011;8371;52.272;9.746;2023-10-08T03:22:58;0.53;;;0.30;;
16516;SDS011;8371;52.272;9.746;2023-10-08T03:25:23;1.33;;;0.43;;
16516;SDS011;8371;52.272;9.746;2023-10-08T03:27:50;0.83;;;0.70;;
16516;SDS011;8371;52.272;9.746;2023-10-08T03:30:18;0.40;;;0.40;;
16516;SDS011;8371;52.272;9.746;2023-10-08T03:32:44;0.33;;;0.33;;
16516;SDS011;8371;52.272;9.746;2023-10-08T03:35:10;0.50;;;0.50;;
16516;SDS011;8371;52.272;9.746;2023-10-08T03:37:38;0.30;;;0.30;;
16516;SDS011;8371;52.272;9.746;2023-10-08T03:40:09;0.80;;;0.37;;
16516;SDS011;8371;52.272;9.746;2023-10-08T03:42:55;0.40;;;0.40;;
16516;SDS011;8371;52.272;9.746;2023-10-08T03:45:23;0.50;;;0.43;;
16516;SDS011;8371;52.272;9.746;2023-10-08T03:48:07;0.30;;;0.30;;
16516;SDS011;8371;52.272;9.746;2023-10-08T03:50:35;0.97;;;0.33;;
16516;SDS011;8371;52.272;9.746;2023-10-08T03:53:08;1.30;;;0.40;;
16516;SDS011;8371;52.272;9.746;2023-10-08T03:55:38;0.37;;;0.37;;
16516;SDS011;8371;52.272;9.746;2023-10-08T03:58:07;0.40;;;0.40;;
16516;SDS011;8371;52.272;9.746;2023-10-08T04:00:38;1.13;;;0.57;;
16516;SDS011;8371;52.272;9.746;2023-10-08T04:03:06;0.20;;;0.20;;
16516;SDS011;8371;52.272;9.746;2023-10-08T04:05:37;0.33;;;0.33;;
16516;SDS011;8371;52.272;9.746;2023-10-08T04:08:22;0.43;;;0.40;;
16516;SDS011;8371;52.272;9.746;2023-10-08T04:10:52;0.90;;;0.60;;
16516;SDS011;8371;52.272;9.746;2023-10-08T04:13:20;0.40;;;0.40;;
16516;SDS011;8371;52.272;9.746;2023-10-08T04:15:45;0.60;;;0.60;;
16516;SDS011;8371;52.272;9.746;2023-10-08T04:18:11;0.30;;;0.30;;
16516;SDS011;8371;52.272;9.746;2023-10-08T04:20:38;0.40;;;0.23;;
16516;SDS011;8371;52.272;9.746;2023-10-08T04:23:05;1.07;;;0.30;;
16516;SDS011;8371;52.272;9.746;2023-10-08T04:25:41;0.67;;;0.47;;
16516;SDS011;8371;52.272;9.746;2023-10-08T04:28:08;0.73;;;0.70;;
16516;SDS011;8371;52.272;9.746;2023-10-08T04:30:35;0.57;;;0.57;;
16516;SDS011;8371;52.272;9.746;2023-10-08T04:33:05;0.77;;;0.60;;
16516;SDS011;8371;52.272;9.746;2023-10-08T04:35:35;0.47;;;0.40;;
16516;SDS011;8371;52.272;9.746;2023-10-08T04:38:03;1.33;;;0.40;;
16516;SDS011;8371;52.272;9.746;2023-10-08T04:40:31;0.40;;;0.40;;
16516;SDS011;8371;52.272;9.746;2023-10-08T04:42:59;0.40;;;0.40;;
16516;SDS011;8371;52.272;9.746;2023-10-08T04:45:26;0.13;;;0.13;;
16516;SDS011;8371;52.272;9.746;2023-10-08T04:47:54;0.30;;;0.30;;
16516;SDS011;8371;52.272;9.746;2023-10-08T04:50:21;1.60;;;0.57;;
16516;SDS011;8371;52.272;9.746;2023-10-08T04:52:49;0.50;;;0.30;;
16516;SDS011;8371;52.272;9.746;2023-10-08T04:55:24;1.37;;;0.50;;
16516;SDS011;8371;52.272;9.746;2023-10-08T04:57:52;0.30;;;0.30;;
16516;SDS011;8371;52.272;9.746;2023-10-08T05:00:18;0.27;;;0.27;;
16516;SDS011;8371;52.272;9.746;2023-10-08T05:02:46;0.50;;;0.50;;
16516;SDS011;8371;52.272;9.746;2023-10-08T05:05:15;0.10;;;0.10;;
16516;SDS011;8371;52.272;9.746;2023-10-08T05:07:43;0.63;;;0.50;;
16516;SDS011;8371;52.272;9.746;2023-10-08T05:10:14;3.70;;;0.27;;
16516;SDS011;8371;52.272;9.746;2023-10-08T05:12:52;0.40;;;0.40;;
16516;SDS011;8371;52.272;9.746;2023-10-08T05:15:32;0.30;;;0.30;;
16516;SDS011;8371;52.272;9.746;2023-10-08T05:17:59;0.20;;;0.20;;
16516;SDS011;8371;52.272;9.746;2023-10-08T05:20:26;1.17;;;1.03;;
16516;SDS011;8371;52.272;9.746;2023-10-08T05:22:57;0.43;;;0.33;;
16516;SDS011;8371;52.272;9.746;2023-10-08T05:25:24;0.27;;;0.23;;
16516;SDS011;8371;52.272;9.746;2023-10-08T05:27:53;1.00;;;0.40;;
16516;SDS011;8371;52.272;9.746;2023-10-08T05:30:26;0.93;;;0.47;;
16516;SDS011;8371;52.272;9.746;2023-10-08T05:32:56;0.20;;;0.10;;
16516;SDS011;8371;52.272;9.746;2023-10-08T05:35:40;0.57;;;0.30;;
16516;SDS011;8371;52.272;9.746;2023-10-08T05:38:09;0.40;;;0.40;;
16516;SDS011;8371;52.272;9.746;2023-10-08T05:40:49;0.50;;;0.50;;
16516;SDS011;8371;52.272;9.746;2023-10-08T05:43:25;0.73;;;0.40;;
16516;SDS011;8371;52.272;9.746;2023-10-08T05:46:08;0.60;;;0.50;;
16516;SDS011;8371;52.272;9.746;2023-10-08T05:51:37;0.50;;;0.50;;
16516;SDS011;8371;52.272;9.746;2023-10-08T05:54:15;0.20;;;0.20;;
16516;SDS011;8371;52.272;9.746;2023-10-08T05:56:57;1.53;;;0.60;;
16516;SDS011;8371;52.272;9.746;2023-10-08T05:59:46;0.20;;;0.20;;
16516;SDS011;8371;52.272;9.746;2023-10-08T06:02:29;0.40;;;0.40;;
16516;SDS011;8371;52.272;9.746;2023-10-08T06:05:01;3.20;;;0.50;;
16516;SDS011;8371;52.272;9.746;2023-10-08T06:07:43;0.73;;;0.73;;
16516;SDS011;8371;52.272;9.746;2023-10-08T06:10:27;0.33;;;0.33;;
16516;SDS011;8371;52.272;9.746;2023-10-08T06:15:47;0.20;;;0.20;;
16516;SDS011;8371;52.272;9.746;2023-10-08T06:18:18;0.20;;;0.20;;
16516;SDS011;8371;52.272;9.746;2023-10-08T06:20:45;0.40;;;0.30;;
16516;SDS011;8371;52.272;9.746;2023-10-08T06:23:12;0.70;;;0.50;;
16516;SDS011;8371;52.272;9.746;2023-10-08T06:25:42;1.80;;;0.40;;
16516;SDS011;8371;52.272;9.746;2023-10-08T06:28:17;0.73;;;0.33;;
16516;SDS011;8371;52.272;9.746;2023-10-08T06:30:47;0.50;;;0.40;;
16516;SDS011;8371;52.272;9.746;2023-10-08T06:33:14;0.43;;;0.40;;
16516;SDS011;8371;52.272;9.746;2023-10-08T06:35:42;0.50;;;0.50;;
16516;SDS011;8371;52.272;9.746;2023-10-08T06:38:10;0.80;;;0.30;;
16516;SDS011;8371;52.272;9.746;2023-10-08T06:40:36;0.33;;;0.30;;
16516;SDS011;8371;52.272;9.746;2023-10-08T06:43:04;0.40;;;0.40;;
16516;SDS011;8371;52.272;9.746;2023-10-08T06:45:43;0.40;;;0.40;;
16516;SDS011;8371;52.272;9.746;2023-10-08T06:48:11;0.40;;;0.40;;
16516;SDS011;8371;52.272;9.746;2023-10-08T06:50:40;0.50;;;0.50;;
16516;SDS011;8371;52.272;9.746;2023-10-08T06:53:06;0.60;;;0.33;;
16516;SDS011;8371;52.272;9.746;2023-10-08T06:55:33;0.40;;;0.40;;
16516;SDS011;8371;52.272;9.746;2023-10-08T06:58:01;1.80;;;0.50;;
16516;SDS011;8371;52.272;9.746;2023-10-08T07:00:29;0.63;;;0.27;;
16516;SDS011;8371;52.272;9.746;2023-10-08T07:02:57;0.57;;;0.57;;
16516;SDS011;8371;52.272;9.746;2023-10-08T07:05:22;0.70;;;0.50;;
16516;SDS011;8371;52.272;9.746;2023-10-08T07:07:48;0.57;;;0.30;;
16516;SDS011;8371;52.272;9.746;2023-10-08T07:10:14;0.37;;;0.37;;
16516;SDS011;8371;52.272;9.746;2023-10-08T07:12:41;0.40;;;0.40;;
16516;SDS011;8371;52.272;9.746;2023-10-08T07:15:09;0.30;;;0.30;;
16516;SDS011;8371;52.272;9.746;2023-10-08T07:17:37;0.80;;;0.50;;
16516;SDS011;8371;52.272;9.746;2023-10-08T07:20:14;0.80;;;0.60;;
16516;SDS011;8371;52.272;9.746;2023-10-08T07:22:42;0.30;;;0.30;;
16516;SDS011;8371;52.272;9.746;2023-10-08T07:25:09;0.60;;;0.60;;
16516;SDS011;8371;52.272;9.746;2023-10-08T07:27:52;0.77;;;0.43;;
16516;SDS011;8371;52.272;9.746;2023-10-08T07:30:11;0.53;;;0.53;;
16516;SDS011;8371;52.272;9.746;2023-10-08T07:32:38;0.53;;;0.50;;
16516;SDS011;8371;52.272;9.746;2023-10-08T07:35:04;0.50;;;0.50;;
16516;SDS011;8371;52.272;9.746;2023-10-08T07:37:48;1.00;;;0.90;;
16516;SDS011;8371;52.272;9.746;2023-10-08T07:40:13;0.93;;;0.93;;
16516;SDS011;8371;52.272;9.746;2023-10-08T07:42:40;0.60;;;0.60;;
16516;SDS011;8371;52.272;9.746;2023-10-08T07:45:05;0.90;;;0.67;;
16516;SDS011;8371;52.272;9.746;2023-10-08T07:47:32;0.70;;;0.70;;
16516;SDS011;8371;52.272;9.746;2023-10-08T07:49:57;0.53;;;0.53;;
16516;SDS011;8371;52.272;9.746;2023-10-08T07:52:26;2.00;;;0.60;;
16516;SDS011;8371;52.272;9.746;2023-10-08T07:54:52;0.50;;;0.50;;
16516;SDS011;8371;52.272;9.746;2023-10-08T07:57:18;0.77;;;0.60;;
16516;SDS011;8371;52.272;9.746;2023-10-08T07:59:46;0.50;;;0.50;;
16516;SDS011;8371;52.272;9.746;2023-10-08T08:02:12;0.60;;;0.60;;
16516;SDS011;8371;52.272;9.746;2023-10-08T08:04:42;1.27;;;0.60;;
16516;SDS011;8371;52.272;9.746;2023-10-08T08:07:11;0.60;;;0.60;;
16516;SDS011;8371;52.272;9.746;2023-10-08T08:09:49;0.60;;;0.60;;
16516;SDS011;8371;52.272;9.746;2023-10-08T08:12:20;0.67;;;0.67;;
16516;SDS011;8371;52.272;9.746;2023-10-08T08:14:47;0.73;;;0.70;;
16516;SDS011;8371;52.272;9.746;2023-10-08T08:17:14;0.90;;;0.63;;
16516;SDS011;8371;52.272;9.746;2023-10-08T08:22:10;1.33;;;0.80;;
16516;SDS011;8371;52.272;9.746;2023-10-08T08:24:41;1.73;;;0.83;;
16516;SDS011;8371;52.272;9.746;2023-10-08T08:27:09;0.80;;;0.80;;
16516;SDS011;8371;52.272;9.746;2023-10-08T08:29:37;0.70;;;0.70;;
16516;SDS011;8371;52.272;9.746;2023-10-08T08:32:14;1.93;;;0.67;;
16516;SDS011;8371;52.272;9.746;2023-10-08T08:34:41;0.90;;;0.90;;
16516;SDS011;8371;52.272;9.746;2023-10-08T08:37:12;0.40;;;0.40;;
16516;SDS011;8371;52.272;9.746;2023-10-08T08:39:38;1.23;;;0.60;;
16516;SDS011;8371;52.272;9.746;2023-10-08T08:42:04;0.53;;;0.53;;
16516;SDS011;8371;52.272;9.746;2023-10-08T08:44:35;0.60;;;0.60;;
16516;SDS011;8371;52.272;9.746;2023-10-08T08:47:03;0.60;;;0.60;;
16516;SDS011;8371;52.272;9.746;2023-10-08T08:49:33;1.53;;;0.60;;
16516;SDS011;8371;52.272;9.746;2023-10-08T08:52:02;3.37;;;0.70;;
16516;SDS011;8371;52.272;9.746;2023-10-08T08:54:29;0.87;;;0.57;;
16516;SDS011;8371;52.272;9.746;2023-10-08T08:56:56;1.07;;;0.80;;
16516;SDS011;8371;52.272;9.746;2023-10-08T08:59:25;1.23;;;0.87;;
16516;SDS011;8371;52.272;9.746;2023-10-08T09:01:52;0.70;;;0.70;;
16516;SDS011;8371;52.272;9.746;2023-10-08T09:04:27;1.33;;;0.60;;
16516;SDS011;8371;52.272;9.746;2023-10-08T09:06:56;2.13;;;0.80;;
16516;SDS011;8371;52.272;9.746;2023-10-08T09:09:30;0.60;;;0.57;;
16516;SDS011;8371;52.272;9.746;2023-10-08T09:11:53;2.17;;;0.70;;
16516;SDS011;8371;52.272;9.746;2023-10-08T09:14:23;0.70;;;0.57;;
16516;SDS011;8371;52.272;9.746;2023-10-08T09:16:52;0.67;;;0.67;;
16516;SDS011;8371;52.272;9.746;2023-10-08T09:19:19;1.33;;;0.50;;
16516;SDS011;8371;52.272;9.746;2023-10-08T09:21:59;0.60;;;0.60;;
16516;SDS011;8371;52.272;9.746;2023-10-08T09:24:35;0.87;;;0.83;;
16516;SDS011;8371;52.272;9.746;2023-10-08T09:27:04;0.43;;;0.43;;
16516;SDS011;8371;52.272;9.746;2023-10-08T09:29:31;0.57;;;0.57;;
16516;SDS011;8371;52.272;9.746;2023-10-08T09:31:58;1.03;;;0.73;;
16516;SDS011;8371;52.272;9.746;2023-10-08T09:34:31;1.40;;;0.80;;
16516;SDS011;8371;52.272;9.746;2023-10-08T09:36:57;0.70;;;0.70;;
16516;SDS011;8371;52.272;9.746;2023-10-08T09:39:27;0.73;;;0.70;;
16516;SDS011;8371;52.272;9.746;2023-10-08T09:42:01;0.47;;;0.47;;
16516;SDS011;8371;52.272;9.746;2023-10-08T09:44:28;1.00;;;1.00;;
16516;SDS011;8371;52.272;9.746;2023-10-08T09:49:30;0.93;;;0.93;;
16516;SDS011;8371;52.272;9.746;2023-10-08T09:52:02;1.53;;;1.10;;
16516;SDS011;8371;52.272;9.746;2023-10-08T09:54:31;0.80;;;0.80;;
16516;SDS011;8371;52.272;9.746;2023-10-08T09:57:01;1.40;;;0.97;;
16516;SDS011;8371;52.272;9.746;2023-10-08T09:59:29;1.20;;;1.20;;
16516;SDS011;8371;52.272;9.746;2023-10-08T10:01:55;0.90;;;0.90;;
16516;SDS011;8371;52.272;9.746;2023-10-08T10:04:23;1.23;;;1.13;;
16516;SDS011;8371;52.272;9.746;2023-10-08T10:06:56;0.70;;;0.70;;
16516;SDS011;8371;52.272;9.746;2023-10-08T10:09:26;1.70;;;1.20;;
16516;SDS011;8371;52.272;9.746;2023-10-08T10:11:53;2.33;;;1.10;;
16516;SDS011;8371;52.272;9.746;2023-10-08T10:14:23;3.33;;;1.00;;
16516;SDS011;8371;52.272;9.746;2023-10-08T10:17:09;1.00;;;1.00;;
16516;SDS011;8371;52.272;9.746;2023-10-08T10:19:41;0.90;;;0.90;;
16516;SDS011;8371;52.272;9.746;2023-10-08T10:22:10;1.10;;;1.00;;
16516;SDS011;8371;52.272;9.746;2023-10-08T10:24:36;0.70;;;0.70;;
16516;SDS011;8371;52.272;9.746;2023-10-08T10:27:09;0.90;;;0.90;;
16516;SDS011;8371;52.272;9.746;2023-10-08T10:29:37;0.80;;;0.80;;
16516;SDS011;8371;52.272;9.746;2023-10-08T10:32:03;0.97;;;0.97;;
16516;SDS011;8371;52.272;9.746;2023-10-08T10:34:30;0.80;;;0.77;;
16516;SDS011;8371;52.272;9.746;2023-10-08T10:36:58;1.07;;;1.00;;
16516;SDS011;8371;52.272;9.746;2023-10-08T10:39:26;1.10;;;0.97;;
16516;SDS011;8371;52.272;9.746;2023-10-08T10:41:53;0.97;;;0.97;;
16516;SDS011;8371;52.272;9.746;2023-10-08T10:44:25;1.47;;;1.13;;
16516;SDS011;8371;52.272;9.746;2023-10-08T10:46:51;1.10;;;1.00;;
16516;SDS011;8371;52.272;9.746;2023-10-08T10:49:20;1.23;;;0.90;;
16516;SDS011;8371;52.272;9.746;2023-10-08T10:51:51;1.10;;;1.00;;
16516;SDS011;8371;52.272;9.746;2023-10-08T10:54:23;0.67;;;0.67;;
16516;SDS011;8371;52.272;9.746;2023-10-08T10:56:50;0.70;;;0.70;;
16516;SDS011;8371;52.272;9.746;2023-10-08T10:59:32;1.10;;;0.93;;
16516;SDS011;8371;52.272;9.746;2023-10-08T11:02:06;1.03;;;0.87;;
16516;SDS011;8371;52.272;9.746;2023-10-08T11:04:33;0.90;;;0.90;;
16516;SDS011;8371;52.272;9.746;2023-10-08T11:07:02;1.00;;;1.00;;
16516;SDS011;8371;52.272;9.746;2023-10-08T11:09:29;0.80;;;0.80;;
16516;SDS011;8371;52.272;9.746;2023-10-08T11:12:03;3.10;;;1.00;;
16516;SDS011;8371;52.272;9.746;2023-10-08T11:14:31;1.23;;;1.13;;
16516;SDS011;8371;52.272;9.746;2023-10-08T11:16:58;1.10;;;1.00;;
16516;SDS011;8371;52.272;9.746;2023-10-08T11:19:24;0.70;;;0.70;;
16516;SDS011;8371;52.272;9.746;2023-10-08T11:21:52;0.80;;;0.80;;
16516;SDS011;8371;52.272;9.746;2023-10-08T11:24:33;1.17;;;1.10;;
16516;SDS011;8371;52.272;9.746;2023-10-08T11:27:01;1.57;;;0.80;;
16516;SDS011;8371;52.272;9.746;2023-10-08T11:29:30;2.10;;;1.87;;
16516;SDS011;8371;52.272;9.746;2023-10-08T11:31:55;1.40;;;1.17;;
16516;SDS011;8371;52.272;9.746;2023-10-08T11:34:21;1.60;;;1.50;;
16516;SDS011;8371;52.272;9.746;2023-10-08T11:36:52;1.07;;;1.07;;
16516;SDS011;8371;52.272;9.746;2023-10-08T11:39:21;0.87;;;0.87;;
16516;SDS011;8371;52.272;9.746;2023-10-08T11:41:54;1.10;;;1.10;;
16516;SDS011;8371;52.272;9.746;2023-10-08T11:44:21;1.40;;;0.90;;
16516;SDS011;8371;52.272;9.746;2023-10-08T11:46:49;0.70;;;0.70;;
16516;SDS011;8371;52.272;9.746;2023-10-08T11:49:18;1.93;;;0.90;;
16516;SDS011;8371;52.272;9.746;2023-10-08T11:51:45;1.53;;;0.90;;
16516;SDS011;8371;52.272;9.746;2023-10-08T11:54:11;0.60;;;0.60;;
16516;SDS011;8371;52.272;9.746;2023-10-08T11:56:37;1.13;;;0.80;;
16516;SDS011;8371;52.272;9.746;2023-10-08T11:59:04;0.80;;;0.80;;
16516;SDS011;8371;52.272;9.746;2023-10-08T12:01:34;0.60;;;0.60;;
16516;SDS011;8371;52.272;9.746;2023-10-08T12:04:02;3.13;;;0.87;;
16516;SDS011;8371;52.272;9.746;2023-10-08T12:06:29;1.03;;;0.93;;
16516;SDS011;8371;52.272;9.746;2023-10-08T12:08:56;0.60;;;0.60;;
16516;SDS011;8371;52.272;9.746;2023-10-08T12:11:26;0.80;;;0.80;;
16516;SDS011;8371;52.272;9.746;2023-10-08T12:13:54;2.10;;;0.90;;
16516;SDS011;8371;52.272;9.746;2023-10-08T12:16:21;2.20;;;1.10;;
16516;SDS011;8371;52.272;9.746;2023-10-08T12:18:48;1.00;;;0.93;;
16516;SDS011;8371;52.272;9.746;2023-10-08T12:21:16;2.33;;;1.00;;
16516;SDS011;8371;52.272;9.746;2023-10-08T12:23:42;0.70;;;0.70;;
16516;SDS011;8371;52.272;9.746;2023-10-08T12:26:10;0.80;;;0.80;;
16516;SDS011;8371;52.272;9.746;2023-10-08T12:28:39;0.87;;;0.87;;
16516;SDS011;8371;52.272;9.746;2023-10-08T12:31:05;1.10;;;0.83;;
16516;SDS011;8371;52.272;9.746;2023-10-08T12:33:31;0.93;;;0.83;;
16516;SDS011;8371;52.272;9.746;2023-10-08T12:35:57;0.90;;;0.90;;
16516;SDS011;8371;52.272;9.746;2023-10-08T12:38:26;0.90;;;0.90;;
16516;SDS011;8371;52.272;9.746;2023-10-08T12:40:57;1.87;;;0.67;;
16516;SDS011;8371;52.272;9.746;2023-10-08T12:43:24;0.83;;;0.70;;
16516;SDS011;8371;52.272;9.746;2023-10-08T12:45:54;0.70;;;0.70;;
16516;SDS011;8371;52.272;9.746;2023-10-08T12:48:22;0.73;;;0.73;;
16516;SDS011;8371;52.272;9.746;2023-10-08T12:50:49;1.10;;;1.00;;
16516;SDS011;8371;52.272;9.746;2023-10-08T12:53:19;0.63;;;0.60;;
16516;SDS011;8371;52.272;9.746;2023-10-08T12:55:50;0.60;;;0.60;;
16516;SDS011;8371;52.272;9.746;2023-10-08T12:58:18;1.03;;;1.03;;
16516;SDS011;8371;52.272;9.746;2023-10-08T13:00:43;1.90;;;0.57;;
16516;SDS011;8371;52.272;9.746;2023-10-08T13:03:11;1.53;;;0.77;;
16516;SDS011;8371;52.272;9.746;2023-10-08T13:05:39;0.47;;;0.47;;
16516;SDS011;8371;52.272;9.746;2023-10-08T13:08:06;0.87;;;0.60;;
16516;SDS011;8371;52.272;9.746;2023-10-08T13:10:34;0.57;;;0.57;;
16516;SDS011;8371;52.272;9.746;2023-10-08T13:12:59;0.73;;;0.73;;
16516;SDS011;8371;52.272;9.746;2023-10-08T13:15:25;2.13;;;0.70;;
16516;SDS011;8371;52.272;9.746;2023-10-08T13:17:51;0.50;;;0.50;;
16516;SDS011;8371;52.272;9.746;2023-10-08T13:20:18;0.63;;;0.63;;
16516;SDS011;8371;52.272;9.746;2023-10-08T13:22:44;0.77;;;0.77;;
16516;SDS011;8371;52.272;9.746;2023-10-08T13:25:11;0.77;;;0.70;;
16516;SDS011;8371;52.272;9.746;2023-10-08T13:27:38;1.57;;;0.80;;
16516;SDS011;8371;52.272;9.746;2023-10-08T13:30:05;1.57;;;0.60;;
16516;SDS011;8371;52.272;9.746;2023-10-08T13:32:35;1.23;;;0.67;;
16516;SDS011;8371;52.272;9.746;2023-10-08T13:35:05;0.47;;;0.47;;
16516;SDS011;8371;52.272;9.746;2023-10-08T13:37:33;0.40;;;0.40;;
16516;SDS011;8371;52.272;9.746;2023-10-08T13:40:00;1.03;;;0.87;;
16516;SDS011;8371;52.272;9.746;2023-10-08T13:42:26;0.73;;;0.73;;
16516;SDS011;8371;52.272;9.746;2023-10-08T13:44:53;1.23;;;1.00;;
16516;SDS011;8371;52.272;9.746;2023-10-08T13:47:20;0.70;;;0.60;;
16516;SDS011;8371;52.272;9.746;2023-10-08T13:49:48;0.50;;;0.50;;
16516;SDS011;8371;52.272;9.746;2023-10-08T13:52:15;0.70;;;0.60;;
16516;SDS011;8371;52.272;9.746;2023-10-08T13:54:42;0.67;;;0.63;;
16516;SDS011;8371;52.272;9.746;2023-10-08T13:57:10;0.80;;;0.80;;
16516;SDS011;8371;52.272;9.746;2023-10-08T13:59:37;0.57;;;0.57;;
16516;SDS011;8371;52.272;9.746;2023-10-08T14:02:03;3.47;;;1.03;;
16516;SDS011;8371;52.272;9.746;2023-10-08T14:04:31;0.50;;;0.50;;
16516;SDS011;8371;52.272;9.746;2023-10-08T14:06:58;0.70;;;0.70;;
16516;SDS011;8371;52.272;9.746;2023-10-08T14:09:24;0.97;;;0.90;;
16516;SDS011;8371;52.272;9.746;2023-10-08T14:12:02;0.97;;;0.60;;
16516;SDS011;8371;52.272;9.746;2023-10-08T14:14:29;1.43;;;0.70;;
16516;SDS011;8371;52.272;9.746;2023-10-08T14:16:55;0.60;;;0.60;;
16516;SDS011;8371;52.272;9.746;2023-10-08T14:19:23;2.00;;;1.10;;
16516;SDS011;8371;52.272;9.746;2023-10-08T14:21:51;1.60;;;0.70;;
16516;SDS011;8371;52.272;9.746;2023-10-08T14:24:21;0.97;;;0.70;;
16516;SDS011;8371;52.272;9.746;2023-10-08T14:26:49;2.10;;;0.47;;
16516;SDS011;8371;52.272;9.746;2023-10-08T14:29:16;0.40;;;0.40;;
16516;SDS011;8371;52.272;9.746;2023-10-08T14:31:43;1.27;;;0.80;;
16516;SDS011;8371;52.272;9.746;2023-10-08T14:34:11;0.83;;;0.80;;
16516;SDS011;8371;52.272;9.746;2023-10-08T14:36:45;1.77;;;0.77;;
16516;SDS011;8371;52.272;9.746;2023-10-08T14:39:34;1.30;;;0.80;;
16516;SDS011;8371;52.272;9.746;2023-10-08T14:42:18;1.40;;;0.77;;
16516;SDS011;8371;52.272;9.746;2023-10-08T14:45:03;0.50;;;0.50;;
16516;SDS011;8371;52.272;9.746;2023-10-08T14:47:38;1.43;;;0.60;;
16516;SDS011;8371;52.272;9.746;2023-10-08T14:50:04;0.83;;;0.60;;
16516;SDS011;8371;52.272;9.746;2023-10-08T14:52:31;1.50;;;0.60;;
16516;SDS011;8371;52.272;9.746;2023-10-08T14:54:58;0.50;;;0.50;;
16516;SDS011;8371;52.272;9.746;2023-10-08T14:57:24;0.83;;;0.83;;
16516;SDS011;8371;52.272;9.746;2023-10-08T14:59:52;0.87;;;0.87;;
16516;SDS011;8371;52.272;9.746;2023-10-08T15:02:17;1.37;;;0.87;;
16516;SDS011;8371;52.272;9.746;2023-10-08T15:04:43;0.67;;;0.60;;
16516;SDS011;8371;52.272;9.746;2023-10-08T15:07:09;0.70;;;0.70;;
16516;SDS011;8371;52.272;9.746;2023-10-08T15:09:40;0.60;;;0.60;;
16516;SDS011;8371;52.272;9.746;2023-10-08T15:12:06;2.23;;;0.60;;
16516;SDS011;8371;52.272;9.746;2023-10-08T15:14:34;1.63;;;0.97;;
16516;SDS011;8371;52.272;9.746;2023-10-08T15:17:00;0.80;;;0.80;;
16516;SDS011;8371;52.272;9.746;2023-10-08T15:19:26;0.93;;;0.70;;
16516;SDS011;8371;52.272;9.746;2023-10-08T15:21:52;0.63;;;0.63;;
16516;SDS011;8371;52.272;9.746;2023-10-08T15:24:21;0.60;;;0.60;;
16516;SDS011;8371;52.272;9.746;2023-10-08T15:26:48;0.73;;;0.47;;